Time;durP1;ratioP1;P1;durP2;ratioP2;P2;SDS_P1;SDS_P2;PMS_P1;PMS_P2;Temp;Humidity;BMP_temperature;BMP_pressure;BME280_temperature;BME280_humidity;BME280_pressure;Samples;Min_cycle;Max_cycle;Signal;HPM_P1;HPM_P2
2023/06/29 00:03:19;;;;;;;5.80;3.70;;;;;;;16.31;100.00;100283.13;179936;1264;58939;-57
2023/06/29 00:07:25;;;;;;;6.00;3.60;;;;;;;16.21;100.00;100280.98;179836;1264;46072;-56
2023/06/29 00:11:27;;;;;;;4.40;3.70;;;;;;;16.11;100.00;100281.29;180071;1264;45913;-57
2023/06/29 00:15:29;;;;;;;6.50;4.20;;;;;;;15.99;100.00;100285.70;179940;1266;45963;-56
2023/06/29 00:19:37;;;;;;;6.10;4.80;;;;;;;15.93;100.00;100287.48;179982;1265;43579;-57
2023/06/29 00:23:39;;;;;;;4.20;3.70;;;;;;;15.81;100.00;100293.32;179795;1264;58616;-57
2023/06/29 00:27:41;;;;;;;5.20;4.00;;;;;;;15.75;100.00;100294.95;179909;1264;44643;-56
2023/06/29 00:31:44;;;;;;;8.90;4.00;;;;;;;15.66;100.00;100294.30;179883;1265;44744;-56
2023/06/29 00:35:46;;;;;;;7.20;4.40;;;;;;;15.60;100.00;100293.27;179726;1265;46010;-57
2023/06/29 00:39:50;;;;;;;7.10;4.10;;;;;;;15.62;100.00;100289.76;179852;1265;45006;-57
2023/06/29 00:43:52;;;;;;;8.40;3.70;;;;;;;15.52;100.00;100293.52;180007;1266;58181;-56
2023/06/29 00:47:54;;;;;;;3.80;3.40;;;;;;;15.50;100.00;100290.85;179808;1265;46015;-56
2023/06/29 00:51:56;;;;;;;6.00;4.90;;;;;;;15.51;100.00;100291.36;179864;1265;45007;-57
2023/06/29 00:56:01;;;;;;;5.00;4.00;;;;;;;15.54;100.00;100290.31;179882;1265;45941;-56
2023/06/29 01:05:52;;;;;;;6.50;4.50;;;;;;;15.46;100.00;100291.15;179792;1264;60294;-57
2023/06/29 01:10:00;;;;;;;4.50;3.40;;;;;;;15.49;100.00;100288.70;179962;1264;44020;-56
2023/06/29 01:14:06;;;;;;;4.80;4.00;;;;;;;15.55;100.00;100285.40;179938;1265;43626;-56
2023/06/29 01:18:13;;;;;;;4.90;4.40;;;;;;;15.53;100.00;100282.53;179974;1264;43539;-56
2023/06/29 01:22:37;;;;;;;4.50;3.60;;;;;;;15.53;100.00;100290.63;179857;1264;45231;-56
2023/06/29 01:26:41;;;;;;;28.10;5.70;;;;;;;15.43;100.00;100288.10;179905;1265;59520;-57
2023/06/29 01:30:51;;;;;;;9.50;5.10;;;;;;;15.39;100.00;100285.06;179804;1266;43621;-57
2023/06/29 01:34:54;;;;;;;6.00;3.90;;;;;;;15.39;100.00;100286.16;179886;1264;45891;-57
2023/06/29 01:39:16;;;;;;;6.90;4.00;;;;;;;15.36;100.00;100280.52;179974;1265;45044;-56
2023/06/29 01:43:21;;;;;;;10.40;4.60;;;;;;;15.38;100.00;100278.98;180005;1265;45982;-56
2023/06/29 01:47:24;;;;;;;7.00;4.10;;;;;;;15.37;100.00;100278.84;179743;1267;57525;-56
2023/06/29 01:51:26;;;;;;;6.60;3.90;;;;;;;15.38;100.00;100275.73;179776;1266;43783;-56
2023/06/29 01:56:19;;;;;;;9.40;4.70;;;;;;;15.40;100.00;100273.00;179746;1265;45886;-56
2023/06/29 02:00:23;;;;;;;5.30;4.10;;;;;;;15.42;100.00;100272.27;179793;1264;45636;-56
2023/06/29 02:04:26;;;;;;;6.70;4.90;;;;;;;15.39;100.00;100270.25;179703;1265;45987;-58
2023/06/29 02:08:27;;;;;;;4.70;4.20;;;;;;;15.39;100.00;100270.28;179720;1265;58224;-57
2023/06/29 02:12:31;;;;;;;10.10;3.70;;;;;;;15.36;100.00;100266.27;179688;1265;43602;-56
2023/06/29 02:16:32;;;;;;;5.10;4.10;;;;;;;15.33;100.00;100265.14;179743;1265;44959;-56
2023/06/29 02:20:44;;;;;;;4.00;3.50;;;;;;;15.31;100.00;100264.62;179898;1265;44797;-56
2023/06/29 02:24:48;;;;;;;9.40;4.00;;;;;;;15.26;100.00;100266.73;179837;1265;43592;-57
2023/06/29 02:28:52;;;;;;;2.80;2.60;;;;;;;15.16;100.00;100265.58;179843;1266;58825;-57
2023/06/29 02:32:55;;;;;;;7.60;4.50;;;;;;;15.15;100.00;100271.60;179820;1265;43767;-57
2023/06/29 02:37:14;;;;;;;4.50;4.00;;;;;;;15.10;100.00;100273.89;179955;1265;45933;-56
2023/06/29 02:41:16;;;;;;;7.40;3.60;;;;;;;15.02;100.00;100272.77;179874;1265;44839;-58
2023/06/29 02:45:19;;;;;;;4.00;3.50;;;;;;;15.03;100.00;100280.00;179990;1266;45904;-56
2023/06/29 02:49:21;;;;;;;6.40;4.10;;;;;;;15.08;100.00;100283.79;179918;1268;57940;-56
2023/06/29 02:53:23;;;;;;;5.00;3.10;;;;;;;15.10;100.00;100284.23;179932;1264;46227;-56
2023/06/29 02:57:25;;;;;;;6.10;3.70;;;;;;;15.10;100.00;100287.28;179954;1265;43552;-56
2023/06/29 03:01:31;;;;;;;7.80;5.00;;;;;;;15.08;100.00;100287.80;179854;1265;45948;-56
2023/06/29 03:05:34;;;;;;;7.50;3.90;;;;;;;15.04;100.00;100291.66;179942;1266;46003;-56
2023/06/29 03:09:38;;;;;;;5.30;3.70;;;;;;;14.92;100.00;100289.73;179924;1267;58385;-57
2023/06/29 03:13:40;;;;;;;8.40;6.40;;;;;;;14.87;100.00;100292.39;179991;1265;43774;-56
2023/06/29 03:17:44;;;;;;;4.10;3.40;;;;;;;14.90;100.00;100291.58;179791;1265;44612;-56
2023/06/29 03:21:46;;;;;;;8.60;5.30;;;;;;;14.93;100.00;100295.96;179893;1264;45934;-57
2023/06/29 03:25:48;;;;;;;6.00;3.80;;;;;;;14.92;100.00;100299.13;179895;1265;43749;-57
2023/06/29 03:29:55;;;;;;;6.80;4.40;;;;;;;14.74;100.00;100302.48;179950;1266;58307;-57
2023/06/29 03:33:58;;;;;;;8.20;4.80;;;;;;;14.73;100.00;100305.43;179961;1265;44032;-57
2023/06/29 03:38:07;;;;;;;5.80;4.20;;;;;;;14.89;100.00;100308.06;179846;1265;43677;-57
2023/06/29 03:42:12;;;;;;;5.70;3.40;;;;;;;14.97;100.00;100305.17;179773;1265;45125;-57
2023/06/29 03:46:15;;;;;;;8.00;4.50;;;;;;;14.99;100.00;100304.23;179950;1265;44955;-58
2023/06/29 03:50:17;;;;;;;6.00;3.60;;;;;;;14.96;100.00;100306.56;179887;1265;59363;-58
2023/06/29 03:54:20;;;;;;;4.40;4.00;;;;;;;15.05;100.00;100306.94;179842;1265;45062;-57
2023/06/29 03:58:21;;;;;;;6.70;4.70;;;;;;;15.20;100.00;100310.77;179804;1265;43757;-57
2023/06/29 04:02:23;;;;;;;4.60;2.80;;;;;;;15.36;100.00;100311.77;179887;1264;46187;-58
2023/06/29 04:06:26;;;;;;;12.40;4.50;;;;;;;15.43;100.00;100313.39;179750;1264;45991;-58
2023/06/29 04:10:36;;;;;;;5.30;4.70;;;;;;;15.60;100.00;100314.23;179895;1268;58504;-58
2023/06/29 04:14:38;;;;;;;6.50;3.60;;;;;;;15.78;100.00;100315.25;179980;1265;44658;-58
2023/06/29 04:18:40;;;;;;;8.60;3.90;;;;;;;15.94;100.00;100312.16;179962;1269;44170;-58
2023/06/29 04:22:42;;;;;;;3.80;3.50;;;;;;;16.15;100.00;100310.58;179811;1265;44891;-58
2023/06/29 04:26:44;;;;;;;7.30;3.50;;;;;;;16.49;100.00;100313.38;179670;1266;44986;-58
2023/06/29 04:30:46;;;;;;;11.30;4.50;;;;;;;17.34;100.00;100310.73;179774;1264;59299;-58
2023/06/29 04:34:48;;;;;;;15.30;3.70;;;;;;;18.58;100.00;100304.63;179742;1264;45143;-59
2023/06/29 04:38:50;;;;;;;3.80;3.40;;;;;;;19.94;98.62;100303.64;179923;1265;43900;-58
2023/06/29 04:42:55;;;;;;;4.90;3.40;;;;;;;21.02;87.30;100298.71;179809;1266;44561;-59
2023/06/29 04:47:01;;;;;;;4.40;3.30;;;;;;;21.77;79.61;100302.78;179828;1265;45037;-58
2023/06/29 04:56:15;;;;;;;5.80;3.30;;;;;;;23.06;72.46;100295.52;179782;1265;46179;-58
2023/06/29 05:00:25;;;;;;;4.50;2.60;;;;;;;23.40;72.94;100298.20;179846;1264;45989;-58
2023/06/29 05:04:27;;;;;;;7.10;2.30;;;;;;;23.74;70.82;100294.14;179722;1265;45104;-59
2023/06/29 05:08:38;;;;;;;3.20;1.80;;;;;;;23.49;70.79;100293.70;179953;1265;43566;-59
2023/06/29 05:12:42;;;;;;;4.30;3.50;;;;;;;23.46;69.83;100291.81;179907;1265;58537;-59
2023/06/29 05:16:47;;;;;;;5.50;2.40;;;;;;;23.30;70.52;100294.63;179973;1264;45875;-59
2023/06/29 05:20:49;;;;;;;4.80;3.20;;;;;;;23.21;71.80;100294.78;179933;1265;44527;-59
2023/06/29 05:24:51;;;;;;;7.70;2.70;;;;;;;23.51;71.73;100291.60;179711;1266;43699;-58
2023/06/29 05:28:54;;;;;;;3.30;2.50;;;;;;;23.61;70.95;100288.58;179776;1265;43543;-58
2023/06/29 05:33:11;;;;;;;5.60;2.40;;;;;;;23.39;71.33;100284.94;180003;1264;58074;-59
2023/06/29 05:37:15;;;;;;;3.10;2.20;;;;;;;23.22;70.40;100282.72;179951;1265;43920;-58
2023/06/29 05:41:17;;;;;;;3.80;2.30;;;;;;;23.31;71.25;100284.40;179756;1264;43663;-59
2023/06/29 05:45:19;;;;;;;8.20;2.20;;;;;;;23.40;70.04;100287.98;179905;1265;45285;-58
2023/06/29 05:49:22;;;;;;;3.70;3.30;;;;;;;23.39;70.36;100289.99;179944;1265;45971;-59
2023/06/29 05:53:24;;;;;;;8.10;3.30;;;;;;;23.46;69.00;100288.69;179851;1265;58329;-58
2023/06/29 05:57:26;;;;;;;5.40;2.50;;;;;;;23.26;69.52;100283.39;179873;1265;46392;-59
2023/06/29 06:01:29;;;;;;;3.10;2.50;;;;;;;22.99;69.61;100284.35;179828;1267;45923;-59
2023/06/29 06:05:31;;;;;;;5.50;2.30;;;;;;;22.99;70.37;100281.21;179918;1267;44683;-59
2023/06/29 06:09:33;;;;;;;4.30;2.10;;;;;;;23.11;71.72;100277.30;179916;1267;45857;-59
2023/06/29 06:13:36;;;;;;;5.60;2.70;;;;;;;23.29;70.98;100280.14;179843;1268;59937;-58
2023/06/29 06:17:38;;;;;;;2.60;1.80;;;;;;;23.29;71.68;100281.98;179638;1267;45051;-58
2023/06/29 06:22:31;;;;;;;4.30;2.00;;;;;;;23.55;71.75;100275.73;179509;1265;44805;-58
2023/06/29 06:26:33;;;;;;;3.10;1.90;;;;;;;23.56;69.48;100280.36;179548;1264;44940;-59
2023/06/29 06:30:36;;;;;;;2.50;1.40;;;;;;;23.61;70.74;100278.14;179770;1264;43927;-59
2023/06/29 06:34:38;;;;;;;3.60;1.60;;;;;;;23.68;69.70;100279.07;179623;1265;58250;-58
2023/06/29 06:38:40;;;;;;;5.70;2.40;;;;;;;24.07;70.17;100282.35;179803;1265;43603;-59
2023/06/29 06:42:52;;;;;;;2.60;1.50;;;;;;;24.22;68.21;100278.57;179889;1265;45939;-59
2023/06/29 06:47:01;;;;;;;3.60;2.20;;;;;;;24.26;68.34;100279.17;180152;1265;43807;-59
2023/06/29 06:51:03;;;;;;;3.40;1.50;;;;;;;24.37;67.23;100279.20;180110;1265;43978;-60
2023/06/29 06:55:07;;;;;;;3.90;2.00;;;;;;;24.26;67.24;100276.20;180011;1265;59190;-60
2023/06/29 06:59:12;;;;;;;3.00;2.30;;;;;;;24.14;67.41;100277.02;179935;1265;43608;-59
2023/06/29 07:03:15;;;;;;;6.30;3.40;;;;;;;24.03;69.06;100275.46;179896;1269;44308;-59
2023/06/29 07:07:46;;;;;;;10.90;2.60;;;;;;;24.12;67.37;100273.98;179872;1267;46093;-59
2023/06/29 07:11:49;;;;;;;4.90;2.20;;;;;;;24.19;67.09;100268.55;179888;1265;44947;-59
2023/06/29 07:15:52;;;;;;;1.70;1.60;;;;;;;24.31;65.20;100264.27;179569;1265;58393;-59
2023/06/29 07:19:56;;;;;;;4.30;1.40;;;;;;;24.17;65.49;100265.13;179730;1265;46067;-59
2023/06/29 07:24:03;;;;;;;3.70;1.50;;;;;;;24.32;65.07;100262.51;179882;1264;44934;-59
2023/06/29 07:28:09;;;;;;;2.30;1.70;;;;;;;24.68;63.99;100259.14;179903;1265;44114;-59
2023/06/29 07:32:11;;;;;;;4.10;2.00;;;;;;;24.76;61.81;100261.61;179729;1265;46001;-59
2023/06/29 07:36:13;;;;;;;6.90;2.30;;;;;;;24.80;62.53;100259.73;179861;1265;58466;-59
2023/06/29 07:40:15;;;;;;;1.40;1.00;;;;;;;24.80;59.90;100261.05;179968;1265;43675;-59
2023/06/29 07:44:18;;;;;;;2.50;1.70;;;;;;;24.87;58.08;100253.55;179696;1265;293340;-59
2023/06/29 07:48:48;;;;;;;1.80;1.10;;;;;;;24.88;58.18;100257.02;179926;1265;43951;-59
2023/06/29 07:52:51;;;;;;;2.00;1.20;;;;;;;25.09;57.78;100251.10;180173;1264;43568;-59
2023/06/29 07:56:54;;;;;;;3.30;1.30;;;;;;;25.04;58.33;100246.70;179888;1268;58317;-59
2023/06/29 08:00:59;;;;;;;3.90;0.90;;;;;;;25.06;58.34;100245.95;179977;1264;46119;-59
2023/06/29 08:05:01;;;;;;;2.50;1.50;;;;;;;25.28;56.13;100241.42;179891;1265;46129;-59
2023/06/29 08:09:08;;;;;;;2.00;1.00;;;;;;;25.49;56.00;100243.19;179557;1265;44932;-59
2023/06/29 08:13:37;;;;;;;4.20;1.50;;;;;;;25.64;57.40;100244.76;179831;1267;45903;-59
2023/06/29 08:17:42;;;;;;;3.50;1.20;;;;;;;25.69;57.09;100240.48;179804;1267;59899;-59
2023/06/29 08:21:47;;;;;;;1.90;1.50;;;;;;;25.57;56.45;100241.65;179718;1265;44035;-59
2023/06/29 08:25:55;;;;;;;1.70;0.80;;;;;;;25.67;56.11;100240.36;179766;1267;43655;-59
2023/06/29 08:29:57;;;;;;;2.70;1.20;;;;;;;25.65;57.40;100240.47;179673;1266;44631;-59
2023/06/29 08:33:59;;;;;;;2.40;2.10;;;;;;;25.68;56.70;100237.30;179504;1269;43929;-59
2023/06/29 08:38:01;;;;;;;4.90;1.10;;;;;;;25.81;57.90;100233.37;179558;1265;57901;-59
2023/06/29 08:42:04;;;;;;;1.90;1.20;;;;;;;25.76;57.04;100236.27;179546;1267;45886;-59
2023/06/29 08:46:14;;;;;;;1.80;0.90;;;;;;;25.58;56.20;100232.79;179855;1266;44931;-57
2023/06/29 08:50:21;;;;;;;2.80;1.60;;;;;;;25.54;56.67;100231.79;178056;1268;46158;-87
2023/06/29 08:54:26;;;;;;;2.30;1.20;;;;;;;25.62;56.27;100226.38;178498;1267;44240;-86
2023/06/29 09:07:45;;;;;;;2.00;1.20;;;;;;;25.97;58.11;100224.73;172417;1266;44513;-59
2023/06/29 09:11:50;;;;;;;5.70;1.40;;;;;;;26.04;56.51;100224.77;179435;1268;46091;-59
2023/06/29 09:16:21;;;;;;;2.10;1.30;;;;;;;26.09;57.61;100224.77;179526;1267;44808;-59
2023/06/29 09:20:25;;;;;;;3.10;1.30;;;;;;;26.29;56.94;100218.51;179367;1269;57639;-59
2023/06/29 09:25:21;;;;;;;3.60;1.60;;;;;;;26.12;57.82;100226.04;179355;1266;45140;-59
2023/06/29 09:29:37;;;;;;;4.60;2.20;;;;;;;26.26;57.04;100217.92;179416;1272;44744;-58
2023/06/29 09:33:42;;;;;;;4.20;1.20;;;;;;;26.51;56.81;100206.68;179495;1270;43824;-59
2023/06/29 09:37:50;;;;;;;1.90;1.40;;;;;;;26.57;57.14;100206.29;179562;1267;44665;-59
2023/06/29 09:41:56;;;;;;;2.30;1.60;;;;;;;26.59;56.78;100200.60;179746;1267;58605;-59
2023/06/29 09:46:19;;;;;;;13.20;3.20;;;;;;;26.23;56.71;100204.16;179792;1266;45993;-60
2023/06/29 09:50:24;;;;;;;2.40;1.60;;;;;;;26.06;58.49;100201.14;179748;1267;44310;-59
2023/06/29 09:54:26;;;;;;;3.80;1.40;;;;;;;26.12;56.15;100196.99;179940;1269;43789;-59
2023/06/29 09:58:30;;;;;;;2.50;1.40;;;;;;;26.33;56.13;100193.73;179800;1267;44603;-59
2023/06/29 10:02:33;;;;;;;2.00;1.60;;;;;;;26.39;58.29;100188.28;179697;1269;58844;-59
2023/06/29 10:12:12;;;;;;;3.10;1.10;;;;;;;26.70;55.39;100177.42;179778;1267;45054;-59
2023/06/29 10:16:22;;;;;;;1.90;1.30;;;;;;;26.72;55.59;100173.70;179641;1270;43803;-59
2023/06/29 10:20:29;;;;;;;5.40;2.00;;;;;;;26.73;56.52;100167.02;179626;1267;44000;-59
2023/06/29 10:24:49;;;;;;;3.20;2.00;;;;;;;26.51;55.88;100169.10;179759;1266;59406;-59
2023/06/29 10:28:53;;;;;;;1.30;1.00;;;;;;;26.82;53.42;100163.83;179821;1267;43644;-60
2023/06/29 10:32:54;;;;;;;2.40;1.10;;;;;;;27.08;55.43;100162.09;179586;1270;43787;-59
2023/06/29 10:36:59;;;;;;;7.60;1.60;;;;;;;26.88;55.63;100167.25;179612;1269;45044;-59
2023/06/29 10:41:26;;;;;;;4.30;1.40;;;;;;;27.00;56.57;100163.45;179674;1266;43734;-59
2023/06/29 10:45:30;;;;;;;5.70;2.00;;;;;;;26.86;53.38;100167.49;179715;1267;58625;-59
2023/06/29 10:50:28;;;;;;;2.10;1.00;;;;;;;26.47;56.16;100169.82;179760;1267;43897;-61
2023/06/29 10:54:30;;;;;;;1.40;1.20;;;;;;;26.06;57.92;100170.13;179659;1267;43616;-60
2023/06/29 10:58:37;;;;;;;4.70;1.30;;;;;;;25.80;56.39;100169.30;179473;1267;45925;-59
2023/06/29 11:02:40;;;;;;;2.10;1.20;;;;;;;25.91;57.24;100164.20;179620;1267;45897;-60
2023/06/29 11:06:48;;;;;;;3.90;1.10;;;;;;;26.27;58.33;100153.77;179674;1267;58542;-59
2023/06/29 11:10:53;;;;;;;3.00;1.10;;;;;;;26.70;58.58;100148.05;179623;1267;43645;-59
2023/06/29 11:14:56;;;;;;;3.10;1.50;;;;;;;27.18;56.90;100145.55;179820;1266;43526;-60
2023/06/29 11:19:18;;;;;;;2.00;1.50;;;;;;;27.55;54.67;100144.87;179756;1267;44591;-59
2023/06/29 11:23:20;;;;;;;4.50;1.20;;;;;;;27.57;55.21;100141.55;179674;1269;45964;-59
2023/06/29 11:28:14;;;;;;;2.30;1.00;;;;;;;27.30;53.45;100137.61;179721;1270;57519;-59
2023/06/29 11:32:17;;;;;;;6.30;1.40;;;;;;;27.05;53.79;100137.23;179818;1267;43530;-59
2023/06/29 11:36:28;;;;;;;3.00;2.30;;;;;;;27.10;55.56;100130.04;179814;1267;43787;-60
2023/06/29 11:40:32;;;;;;;2.00;1.80;;;;;;;27.23;54.82;100126.81;180312;1272;43824;-59
2023/06/29 11:44:34;;;;;;;0.90;0.90;;;;;;;27.48;59.34;100124.50;180223;1273;43073;-59
2023/06/29 11:48:36;;;;;;;1.90;1.40;;;;;;;27.75;56.77;100116.73;180066;1276;58255;-60
2023/06/29 11:52:40;;;;;;;2.70;0.90;;;;;;;27.97;53.62;100111.61;179673;1276;43635;-59
2023/06/29 11:56:42;;;;;;;6.00;1.60;;;;;;;28.08;52.89;100111.36;180036;1278;43015;-59
2023/06/29 12:00:55;;;;;;;1.20;1.00;;;;;;;28.13;52.53;100104.68;178607;1284;43206;-59
2023/06/29 12:04:59;;;;;;;1.60;0.80;;;;;;;28.31;52.87;100101.70;177360;1288;43077;-60
2023/06/29 12:12:14;;;;;;;1.40;1.30;;;;;;;28.56;55.05;100096.18;177324;1283;567956;-87
2023/06/29 12:16:18;;;;;;;2.80;1.00;;;;;;;28.61;54.48;100094.89;180336;1267;59566;-85
2023/06/29 12:20:24;;;;;;;3.80;1.50;;;;;;;28.68;52.37;100089.30;180257;1267;44929;-89
2023/06/29 12:24:27;;;;;;;2.30;1.10;;;;;;;28.74;53.42;100082.98;180326;1257;390499;-88
2023/06/29 12:28:29;;;;;;;2.20;1.30;;;;;;;28.83;54.60;100077.39;181457;1254;46009;-87
2023/06/29 12:32:31;;;;;;;1.50;1.40;;;;;;;28.93;52.39;100074.30;181235;1254;45938;-87
2023/06/29 12:36:33;;;;;;;3.70;1.80;;;;;;;28.71;48.49;100070.85;181138;1257;58231;-87
2023/06/29 12:40:37;;;;;;;7.50;2.60;;;;;;;28.78;50.13;100064.36;181299;1254;45929;-86
2023/06/29 12:44:54;;;;;;;2.40;1.40;;;;;;;28.72;50.04;100062.64;181247;1254;44646;-88
2023/06/29 12:48:56;;;;;;;2.60;1.90;;;;;;;28.73;50.75;100065.17;180925;1254;44613;-88
2023/06/29 12:52:59;;;;;;;2.20;1.20;;;;;;;28.82;51.38;100061.86;180992;1254;45019;-89
2023/06/29 12:57:01;;;;;;;3.10;1.10;;;;;;;28.89;52.78;100059.23;180897;1254;58066;-88
2023/06/29 13:01:11;;;;;;;15.80;2.40;;;;;;;28.90;51.95;100053.28;180986;1257;91981;-63
2023/06/29 13:05:15;;;;;;;2.10;1.40;;;;;;;29.06;53.63;100048.98;180245;1264;88256;-62
2023/06/29 13:09:17;;;;;;;2.30;0.80;;;;;;;29.09;52.09;100048.32;180094;1263;46050;-62
2023/06/29 13:13:20;;;;;;;2.10;1.90;;;;;;;29.28;51.92;100045.46;179949;1262;46018;-63
2023/06/29 13:17:22;;;;;;;1.80;1.00;;;;;;;29.37;50.35;100042.98;180019;1261;59433;-64
2023/06/29 13:21:24;;;;;;;2.50;1.10;;;;;;;29.35;48.34;100035.52;179962;1264;43735;-63
2023/06/29 13:25:26;;;;;;;2.80;1.30;;;;;;;29.23;48.86;100025.24;179861;1262;45922;-62
2023/06/29 13:29:35;;;;;;;1.50;1.10;;;;;;;29.25;51.23;100028.88;180149;1263;44156;-61
2023/06/29 13:33:38;;;;;;;1.90;1.20;;;;;;;29.42;51.18;100027.67;180321;1262;44054;-62
2023/06/29 13:37:40;;;;;;;2.00;1.10;;;;;;;29.50;49.97;100022.33;179852;1263;58525;-63
2023/06/29 13:41:43;;;;;;;4.00;1.40;;;;;;;29.56;51.28;100016.35;179852;1261;45217;-62
2023/06/29 13:45:49;;;;;;;1.40;1.10;;;;;;;29.70;49.82;100010.34;179904;1261;44908;-63
2023/06/29 13:49:52;;;;;;;1.60;0.90;;;;;;;29.70;48.44;100007.10;180090;1260;44734;-62
2023/06/29 13:53:55;;;;;;;3.10;1.50;;;;;;;29.58;46.60;100011.01;180255;1261;45909;-62
2023/06/29 13:57:57;;;;;;;1.60;0.90;;;;;;;29.52;47.09;100007.71;180224;1261;59085;-63
2023/06/29 14:02:00;;;;;;;2.80;0.80;;;;;;;29.23;47.31;100005.27;180462;1260;43655;-60
2023/06/29 14:06:02;;;;;;;1.80;1.10;;;;;;;28.94;47.71;100003.77;180446;1261;45934;-60
2023/06/29 14:10:05;;;;;;;1.10;1.00;;;;;;;28.75;48.77;100001.52;180362;1261;43648;-60
2023/06/29 14:14:09;;;;;;;3.40;1.00;;;;;;;28.64;47.16;99995.61;180307;1261;45962;-60
2023/06/29 14:18:12;;;;;;;2.10;1.30;;;;;;;28.64;46.84;99993.36;180429;1263;58928;-60
2023/06/29 14:27:27;;;;;;;2.00;1.00;;;;;;;28.66;48.27;99977.09;180363;1260;45954;-60
2023/06/29 14:31:31;;;;;;;3.40;0.80;;;;;;;28.74;49.11;99975.65;180385;1261;45122;-60
2023/06/29 14:35:33;;;;;;;2.40;0.90;;;;;;;28.54;51.34;99972.56;180487;1260;43585;-60
2023/06/29 14:39:35;;;;;;;1.80;0.80;;;;;;;28.38;51.23;99969.33;180340;1260;58517;-60
2023/06/29 14:43:37;;;;;;;3.30;1.60;;;;;;;28.13;50.32;99960.98;180442;1261;43666;-60
2023/06/29 14:47:39;;;;;;;3.80;1.10;;;;;;;28.07;49.94;99961.92;180479;1261;43560;-60
2023/06/29 14:52:09;;;;;;;2.20;1.10;;;;;;;28.12;49.83;99958.77;180253;1261;46078;-60
2023/06/29 14:56:11;;;;;;;1.50;1.30;;;;;;;28.29;50.16;99951.55;180414;1260;43704;-60
2023/06/29 15:00:16;;;;;;;2.10;1.10;;;;;;;28.63;54.24;99948.71;180422;1260;57643;-60
2023/06/29 15:04:18;;;;;;;4.50;1.50;;;;;;;29.01;51.66;99944.95;180588;1260;43715;-60
2023/06/29 15:09:31;;;;;;;3.80;2.20;;;;;;;28.90;49.12;99945.48;180525;1261;43525;-60
2023/06/29 15:13:32;;;;;;;1.10;1.00;;;;;;;28.69;51.14;99938.28;180534;1263;43529;-60
2023/06/29 15:17:42;;;;;;;6.20;2.10;;;;;;;28.82;51.26;99933.67;180434;1260;44033;-61
2023/06/29 15:21:44;;;;;;;3.40;1.40;;;;;;;28.74;48.71;99929.41;180389;1260;58580;-60
2023/06/29 15:25:46;;;;;;;2.60;1.60;;;;;;;28.93;49.09;99924.28;180370;1260;45951;-60
2023/06/29 15:29:51;;;;;;;1.80;1.50;;;;;;;29.21;47.37;99917.16;180234;1265;43622;-60
2023/06/29 15:33:54;;;;;;;3.20;2.00;;;;;;;29.26;49.07;99909.05;180479;1260;43554;-60
2023/06/29 15:38:01;;;;;;;3.90;1.60;;;;;;;29.16;50.54;99913.85;180468;1261;43777;-60
2023/06/29 15:42:05;;;;;;;2.80;1.60;;;;;;;29.21;48.50;99908.02;180313;1261;58372;-60
2023/06/29 15:46:07;;;;;;;4.00;1.70;;;;;;;28.98;47.89;99908.64;180468;1260;43994;-60
2023/06/29 15:50:20;;;;;;;1.10;0.90;;;;;;;28.73;51.51;99910.69;180435;1260;45267;-60
2023/06/29 15:54:22;;;;;;;1.60;1.00;;;;;;;28.69;49.77;99903.68;180371;1262;43581;-60
2023/06/29 15:58:24;;;;;;;3.20;1.80;;;;;;;28.69;51.46;99901.65;180510;1261;43520;-60
2023/06/29 16:02:26;;;;;;;2.00;1.30;;;;;;;28.64;50.77;99900.66;180456;1260;58894;-60
2023/06/29 16:06:30;;;;;;;3.30;1.60;;;;;;;28.72;50.81;99896.00;180415;1260;45943;-60
2023/06/29 16:10:33;;;;;;;2.40;1.30;;;;;;;28.55;49.43;99894.33;180397;1260;43827;-60
2023/06/29 16:14:42;;;;;;;3.30;1.80;;;;;;;28.56;50.83;99890.14;180407;1260;43577;-59
2023/06/29 16:18:44;;;;;;;1.90;1.30;;;;;;;28.61;51.55;99887.02;180354;1261;43504;-59
2023/06/29 16:45:22;;;;;;;2.40;1.40;;;;;;;27.83;51.92;99870.19;180395;1257;85201;-90
2023/06/29 16:49:25;;;;;;;1.90;1.20;;;;;;;27.76;52.33;99864.84;179582;1259;59400;-90
2023/06/29 16:53:29;;;;;;;1.60;1.50;;;;;;;27.60;53.54;99862.73;179351;1259;45978;-89
2023/06/29 16:57:33;;;;;;;2.80;1.00;;;;;;;27.38;53.55;99861.16;179477;1259;46039;-88
2023/06/29 17:01:36;;;;;;;2.20;1.40;;;;;;;27.22;54.17;99859.27;179316;1260;46012;-89
2023/06/29 17:05:39;;;;;;;4.30;1.30;;;;;;;27.06;56.83;99856.64;179470;1259;44519;-89
2023/06/29 17:09:42;;;;;;;2.50;1.30;;;;;;;26.99;57.42;99858.70;179761;1258;60130;-90
2023/06/29 17:13:47;;;;;;;5.00;1.80;;;;;;;26.92;56.94;99854.23;179696;1258;45971;-88
2023/06/29 17:17:50;;;;;;;;;;;;;;;26.88;57.51;99856.98;180536;1259;44676;-90
2023/06/29 17:21:53;;;;;;;12.40;4.50;;;;;;;26.83;58.84;99851.52;179666;1258;44527;-90
2023/06/29 17:25:56;;;;;;;6.80;0.90;;;;;;;26.79;59.45;99846.59;179431;1258;46031;-90
2023/06/29 17:29:59;;;;;;;4.10;1.40;;;;;;;26.75;60.10;99844.23;179838;1260;59392;-90
2023/06/29 17:34:02;;;;;;;19.70;7.80;;;;;;;26.71;60.87;99841.58;179795;1260;44953;-90
2023/06/29 17:38:05;;;;;;;9.20;2.00;;;;;;;26.69;61.90;99837.89;179596;1261;45963;-89
2023/06/29 17:42:20;;;;;;;13.60;6.20;;;;;;;26.66;62.36;99833.17;179853;1258;46032;-89
2023/06/29 17:46:23;;;;;;;18.80;6.50;;;;;;;26.64;63.83;99829.23;179855;1258;44662;-90
2023/06/29 17:50:26;;;;;;;3.90;2.70;;;;;;;26.59;64.75;99827.40;180186;1259;59566;-90
2023/06/29 17:54:28;;;;;;;43.90;13.60;;;;;;;26.55;65.49;99827.43;179635;1258;46092;-90
2023/06/29 18:03:30;;;;;;;4.30;2.40;;;;;;;26.34;66.85;99827.80;180034;1261;44952;-89
2023/06/29 18:07:33;;;;;;;4.50;2.00;;;;;;;26.19;67.37;99827.38;179442;1261;46010;-90
2023/06/29 18:11:35;;;;;;;3.80;2.00;;;;;;;26.09;67.57;99822.29;179287;1262;57034;-89
2023/06/29 18:15:37;;;;;;;8.40;1.90;;;;;;;26.01;69.80;99824.75;178811;1261;46040;-89
2023/06/29 18:19:39;;;;;;;2.30;1.60;;;;;;;25.90;70.15;99822.83;178834;1263;45936;-90
2023/06/29 18:23:42;;;;;;;5.10;2.30;;;;;;;25.75;70.28;99827.67;179167;1261;46344;-90
2023/06/29 18:27:44;;;;;;;3.80;1.40;;;;;;;25.58;70.86;99821.98;178940;1262;44684;-89
2023/06/29 18:31:47;;;;;;;2.90;1.90;;;;;;;25.40;71.95;99822.23;179424;1262;59301;-87
2023/06/29 18:35:50;;;;;;;1.90;1.50;;;;;;;25.22;71.41;99823.99;178779;1262;46079;-89
2023/06/29 18:39:53;;;;;;;3.60;2.30;;;;;;;25.03;71.69;99825.29;179155;1262;46126;-90
2023/06/29 18:44:01;;;;;;;6.40;3.00;;;;;;;24.84;71.53;99827.20;179720;1262;45953;-87
2023/06/29 18:48:04;;;;;;;1.90;1.60;;;;;;;24.62;72.11;99825.06;179434;1264;43688;-90
2023/06/29 18:52:06;;;;;;;4.60;2.00;;;;;;;24.41;73.44;99826.29;179244;1262;60665;-90
2023/06/29 18:56:09;;;;;;;2.20;1.90;;;;;;;24.20;73.89;99825.67;179209;1261;47725;-88
2023/06/29 19:00:12;;;;;;;3.80;2.00;;;;;;;24.01;74.35;99832.19;179420;1261;46039;-89
2023/06/29 19:04:15;;;;;;;4.50;2.20;;;;;;;23.82;75.89;99832.42;179294;1261;46206;-89
2023/06/29 19:08:20;;;;;;;4.70;3.40;;;;;;;23.58;76.45;99836.91;179644;1261;46078;-91
2023/06/29 19:12:36;;;;;;;8.00;5.70;;;;;;;23.35;77.93;99840.20;179590;1266;59820;-91
2023/06/29 19:16:40;;;;;;;12.40;9.00;;;;;;;23.11;78.86;99841.64;179616;1262;44565;-90
2023/06/29 19:20:44;;;;;;;13.90;9.50;;;;;;;22.90;79.40;99844.65;179980;1260;44146;-88
2023/06/29 19:24:59;;;;;;;15.50;8.80;;;;;;;22.70;80.90;99839.02;180057;1259;45968;-90
2023/06/29 19:29:03;;;;;;;25.60;14.40;;;;;;;22.51;81.91;99837.48;178996;1260;46203;-89
2023/06/29 19:33:05;;;;;;;12.20;8.60;;;;;;;22.34;84.98;99837.70;180044;1259;59438;-89
2023/06/29 19:37:09;;;;;;;22.80;12.80;;;;;;;22.14;87.89;99844.19;179689;1260;45963;-90
2023/06/29 19:41:13;;;;;;;33.90;18.60;;;;;;;21.99;88.42;99848.48;179858;1260;46037;-89
2023/06/29 19:45:15;;;;;;;45.80;24.10;;;;;;;21.85;89.46;99849.25;179288;1260;44128;-89
2023/06/29 19:49:17;;;;;;;33.50;18.80;;;;;;;21.69;90.03;99855.27;179264;1260;44790;-88
2023/06/29 19:53:19;;;;;;;31.60;17.60;;;;;;;21.53;90.97;99857.00;179467;1260;58035;-87